Time;durP1;ratioP1;P1;durP2;ratioP2;P2;SDS_P1;SDS_P2;PMS_P1;PMS_P2;Temp;Humidity;BMP_temperature;BMP_pressure;BME280_temperature;BME280_humidity;BME280_pressure;Samples;Min_cycle;Max_cycle;Signal;HPM_P1;HPM_P2
2020/12/02 00:00:04;;;;;;;18.67;15.73;;;;;;;10.27;51.00;101308.72;5023645;27;102864;-61
2020/12/02 00:02:40;;;;;;;21.48;16.50;;;;;;;10.23;51.79;101304.84;5005767;27;110368;-59
2020/12/02 00:05:11;;;;;;;20.45;16.40;;;;;;;10.19;51.40;101306.41;4989272;27;99465;-59
2020/12/02 00:07:38;;;;;;;19.87;15.90;;;;;;;10.23;51.08;101304.84;5023684;27;111122;-59
2020/12/02 00:10:06;;;;;;;20.48;16.27;;;;;;;10.21;51.33;101312.34;5006138;27;97838;-59
2020/12/02 00:12:32;;;;;;;20.67;16.30;;;;;;;10.20;51.74;101314.22;5023024;27;114085;-59
2020/12/02 00:14:58;;;;;;;21.02;16.50;;;;;;;10.19;51.67;101303.69;5023492;27;127293;-59
2020/12/02 00:17:24;;;;;;;20.85;16.40;;;;;;;10.20;51.26;101314.22;5023771;27;116995;-61
2020/12/02 00:19:51;;;;;;;20.83;16.35;;;;;;;10.19;51.66;101303.69;5024124;27;113721;-61
2020/12/02 00:22:21;;;;;;;22.17;17.23;;;;;;;10.17;51.57;101305.81;5023448;27;98591;-59
2020/12/02 00:24:48;;;;;;;19.48;15.88;;;;;;;10.15;51.20;101297.16;5005839;27;98665;-61
2020/12/02 00:27:27;;;;;;;21.27;16.67;;;;;;;10.12;51.86;101300.34;5027179;27;98047;-59
2020/12/02 00:29:53;;;;;;;21.23;17.15;;;;;;;10.13;51.51;101305.47;5028071;27;97754;-59
2020/12/02 00:32:32;;;;;;;21.40;16.80;;;;;;;10.07;51.22;101306.47;5027377;27;99486;-61
2020/12/02 00:34:58;;;;;;;20.98;16.17;;;;;;;10.09;51.51;101307.03;5027311;27;107320;-61
2020/12/02 00:37:25;;;;;;;21.73;16.67;;;;;;;10.08;51.63;101314.28;5027177;27;109066;-61
2020/12/02 00:39:51;;;;;;;20.55;16.52;;;;;;;10.05;51.77;101306.69;4992445;27;97956;-61
2020/12/02 00:42:18;;;;;;;20.80;16.48;;;;;;;10.07;51.92;101312.66;5026537;27;112000;-61
2020/12/02 00:44:44;;;;;;;21.23;16.55;;;;;;;10.05;51.51;101309.38;4991904;27;111559;-62
2020/12/02 00:47:11;;;;;;;19.85;16.02;;;;;;;10.05;51.52;101320.16;5026800;27;115960;-61
2020/12/02 00:49:38;;;;;;;20.33;16.38;;;;;;;10.04;51.76;101315.03;5027390;27;98112;-61
2020/12/02 00:52:06;;;;;;;19.45;15.85;;;;;;;10.03;51.20;101322.28;5026649;27;127398;-59
2020/12/02 00:54:33;;;;;;;19.23;15.57;;;;;;;10.02;51.50;101317.97;5026795;27;98335;-61
2020/12/02 00:56:59;;;;;;;20.58;15.93;;;;;;;10.00;51.05;101320.09;5026675;27;119351;-61
2020/12/02 00:59:28;;;;;;;18.70;15.60;;;;;;;10.00;51.71;101321.97;4974058;27;114197;-61
2020/12/02 01:02:17;;;;;;;20.23;15.70;;;;;;;9.96;51.49;101327.00;5008854;27;98426;-59
2020/12/02 01:04:44;;;;;;;19.67;15.68;;;;;;;9.97;51.57;101323.25;4977430;27;115719;-59
2020/12/02 01:07:12;;;;;;;19.98;16.13;;;;;;;9.97;51.56;101325.94;5008834;27;98900;-59
2020/12/02 01:09:38;;;;;;;20.70;16.40;;;;;;;9.94;51.54;101323.75;5027670;27;97940;-59
2020/12/02 01:12:04;;;;;;;19.77;15.45;;;;;;;9.94;51.64;101322.91;5025835;27;128204;-61
2020/12/02 01:14:30;;;;;;;19.42;15.75;;;;;;;9.94;51.57;101314.84;5026871;27;98509;-61
2020/12/02 01:16:58;;;;;;;20.02;15.73;;;;;;;9.94;51.10;101323.75;5025904;27;109000;-61
2020/12/02 01:19:33;;;;;;;18.95;15.52;;;;;;;9.92;51.22;101317.78;5026262;27;104350;-59
2020/12/02 01:22:11;;;;;;;20.50;15.68;;;;;;;9.92;51.48;101311.59;5026936;27;98382;-61
2020/12/02 01:24:45;;;;;;;20.65;16.13;;;;;;;9.93;51.73;101314.03;5008737;27;115377;-59
2020/12/02 01:27:24;;;;;;;20.02;15.23;;;;;;;9.91;51.54;101318.03;4992478;27;98199;-61
2020/12/02 01:29:50;;;;;;;19.60;15.75;;;;;;;9.91;51.63;101312.66;5008303;27;97872;-61
2020/12/02 01:32:16;;;;;;;21.08;14.95;;;;;;;9.91;51.32;101318.03;4980464;27;120161;-61
2020/12/02 01:34:48;;;;;;;19.35;15.50;;;;;;;9.88;51.24;101316.63;5026592;27;98610;-59
2020/12/02 01:37:35;;;;;;;20.10;15.85;;;;;;;9.87;51.82;101317.69;5025415;27;97895;-61
2020/12/02 01:40:25;;;;;;;19.77;15.55;;;;;;;9.83;51.53;101320.06;5008449;27;102041;-60
2020/12/02 01:43:13;;;;;;;18.90;15.20;;;;;;;9.86;51.38;101313.34;4990826;27;116626;-61
2020/12/02 01:45:40;;;;;;;19.48;15.65;;;;;;;9.87;51.60;101314.19;4993496;27;98346;-61
2020/12/02 01:48:21;;;;;;;19.33;15.52;;;;;;;9.82;51.22;101314.91;5007502;27;98496;-59
2020/12/02 01:50:51;;;;;;;20.48;15.75;;;;;;;9.86;51.87;101312.53;5009755;27;97694;-59
2020/12/02 01:53:51;;;;;;;19.38;15.55;;;;;;;9.82;51.34;101307.66;4970597;27;115240;-59
2020/12/02 01:56:31;;;;;;;19.38;15.43;;;;;;;9.80;51.19;101309.75;4990601;27;119703;-61
2020/12/02 01:59:26;;;;;;;20.08;15.77;;;;;;;9.78;51.24;101309.16;5005428;27;98106;-61
2020/12/02 02:02:21;;;;;;;19.08;15.07;;;;;;;9.79;51.44;101312.72;4987041;27;108063;-61
2020/12/02 02:05:00;;;;;;;20.60;16.10;;;;;;;9.78;51.05;101305.66;5003581;27;99748;-61
2020/12/02 02:07:27;;;;;;;20.20;15.70;;;;;;;9.79;50.99;101307.31;5005163;27;98847;-60
2020/12/02 02:09:59;;;;;;;19.60;15.25;;;;;;;9.76;51.00;101308.59;5004550;27;97952;-59
2020/12/02 02:13:03;;;;;;;19.77;15.63;;;;;;;9.75;51.21;101300.78;5003570;27;97897;-62
2020/12/02 02:15:49;;;;;;;20.23;15.85;;;;;;;9.79;51.24;101312.72;5004518;27;98258;-59
2020/12/02 02:18:22;;;;;;;20.58;15.38;;;;;;;9.74;51.39;101308.03;5002938;27;98689;-59
2020/12/02 02:20:58;;;;;;;18.67;14.85;;;;;;;9.73;51.22;101302.88;5004975;27;104993;-59
2020/12/02 02:23:24;;;;;;;19.25;15.25;;;;;;;9.75;51.05;101301.59;5005501;27;97850;-61
2020/12/02 02:26:14;;;;;;;19.70;15.43;;;;;;;9.70;51.29;101295.28;5004463;27;117291;-61
2020/12/02 02:29:05;;;;;;;19.30;15.27;;;;;;;9.69;51.11;101291.78;5004636;27;98819;-59
2020/12/02 02:31:45;;;;;;;18.63;14.85;;;;;;;9.69;51.00;101297.16;5004376;27;98391;-59
2020/12/02 02:34:11;;;;;;;18.17;14.52;;;;;;;9.69;51.01;101290.97;4987578;27;97715;-61
2020/12/02 02:36:37;;;;;;;19.02;14.85;;;;;;;9.68;51.30;101286.66;4984768;27;100387;-59
2020/12/02 02:39:04;;;;;;;18.95;14.45;;;;;;;9.69;50.95;101288.28;5004478;27;98400;-59
2020/12/02 02:41:30;;;;;;;18.70;15.18;;;;;;;9.68;51.17;101292.84;5003065;27;127785;-59
2020/12/02 02:43:56;;;;;;;19.13;15.35;;;;;;;9.69;50.58;101294.47;5004193;27;114377;-59
2020/12/02 02:46:22;;;;;;;19.60;14.65;;;;;;;9.67;50.90;101288.53;5003873;27;98872;-59
2020/12/02 02:48:48;;;;;;;19.55;15.07;;;;;;;9.65;51.14;101292.50;5004464;27;98716;-59
2020/12/02 02:51:14;;;;;;;19.20;15.23;;;;;;;9.67;51.17;101295.75;5003119;27;128183;-61
2020/12/02 02:53:40;;;;;;;20.88;15.40;;;;;;;9.65;50.97;101292.50;5002923;27;98013;-61
2020/12/02 02:56:06;;;;;;;18.60;15.23;;;;;;;9.63;50.72;101290.06;5003940;27;106039;-59
2020/12/02 02:58:32;;;;;;;20.25;14.68;;;;;;;9.63;50.81;101303.53;5003639;27;127790;-58
2020/12/02 03:01:00;;;;;;;19.70;14.98;;;;;;;9.61;51.10;101291.34;4984127;27;126855;-60
2020/12/02 03:03:30;;;;;;;19.33;14.88;;;;;;;9.59;50.56;101303.19;4985360;27;107486;-60
2020/12/02 03:06:00;;;;;;;19.33;15.07;;;;;;;9.63;50.83;101302.69;5004064;27;99093;-58
2020/12/02 03:08:26;;;;;;;19.42;14.98;;;;;;;9.66;50.89;101303.03;5003363;27;119166;-58
2020/12/02 03:10:52;;;;;;;19.50;15.10;;;;;;;9.65;50.68;101301.41;5003177;27;127185;-60
2020/12/02 03:13:46;;;;;;;19.27;15.40;;;;;;;9.69;49.89;101297.16;4967437;27;117803;-60
2020/12/02 03:16:38;;;;;;;19.73;14.88;;;;;;;9.66;50.79;101289.56;5001155;27;117530;-58
2020/12/02 03:19:29;;;;;;;19.52;14.65;;;;;;;9.69;50.52;101289.09;4994045;27;98754;-61
2020/12/02 03:22:05;;;;;;;18.85;14.68;;;;;;;9.69;50.18;101289.09;5001770;27;97789;-60
2020/12/02 03:24:31;;;;;;;18.23;14.68;;;;;;;9.69;50.18;101288.28;4986284;27;97915;-60
2020/12/02 03:26:57;;;;;;;18.88;14.52;;;;;;;9.68;50.16;101289.34;5002200;27;128152;-60
2020/12/02 03:29:23;;;;;;;18.90;15.02;;;;;;;9.66;50.18;101289.56;5002882;27;117147;-60
2020/12/02 03:31:50;;;;;;;20.25;15.35;;;;;;;9.63;50.63;101286.53;5002707;27;126521;-60
2020/12/02 03:34:17;;;;;;;18.60;15.10;;;;;;;9.66;49.85;101283.38;5004286;27;98140;-60
2020/12/02 03:36:43;;;;;;;18.83;14.65;;;;;;;9.65;50.09;101289.81;5001198;27;98434;-60
2020/12/02 03:39:11;;;;;;;18.65;14.45;;;;;;;9.64;50.15;101286.31;5002624;27;128200;-58
2020/12/02 03:41:38;;;;;;;18.65;14.85;;;;;;;9.63;49.54;101281.16;5004375;27;98081;-58
2020/12/02 03:44:04;;;;;;;17.65;14.50;;;;;;;9.61;49.72;101278.72;5001988;27;107624;-58
2020/12/02 03:46:30;;;;;;;19.65;15.07;;;;;;;9.61;49.90;101291.34;5002544;27;116041;-60
2020/12/02 03:48:56;;;;;;;18.50;15.07;;;;;;;9.59;49.61;101280.84;5002581;27;120829;-58
2020/12/02 03:51:23;;;;;;;18.30;14.40;;;;;;;9.58;49.71;101285.38;5001431;27;128114;-58
2020/12/02 03:53:49;;;;;;;18.38;14.90;;;;;;;9.58;49.65;101276.50;5023369;27;97786;-58
2020/12/02 03:56:15;;;;;;;19.77;15.05;;;;;;;9.55;50.19;101275.13;5022437;27;128418;-60
2020/12/02 03:58:42;;;;;;;19.38;15.32;;;;;;;9.53;50.20;101276.41;5004975;27;98197;-60
2020/12/02 04:01:08;;;;;;;20.77;14.88;;;;;;;9.53;50.09;101285.28;5021562;27;98176;-58
2020/12/02 04:03:37;;;;;;;18.02;14.82;;;;;;;9.50;49.46;101280.38;5023011;27;117476;-60
2020/12/02 04:06:08;;;;;;;20.27;15.43;;;;;;;9.50;49.52;101283.06;5022920;27;98931;-60
2020/12/02 04:08:35;;;;;;;21.08;14.88;;;;;;;9.48;50.16;101281.72;5023309;27;98656;-60
2020/12/02 04:11:01;;;;;;;18.38;14.82;;;;;;;9.46;50.38;101281.13;5023316;27;99656;-60
2020/12/02 04:13:27;;;;;;;19.67;15.00;;;;;;;9.48;50.06;101281.72;5023249;27;97748;-60
2020/12/02 04:15:53;;;;;;;20.40;15.18;;;;;;;9.45;50.18;101279.50;4986696;27;127918;-61
2020/12/02 04:18:20;;;;;;;19.90;15.20;;;;;;;9.42;50.28;101286.16;5023621;27;98648;-60
2020/12/02 04:20:46;;;;;;;21.17;15.32;;;;;;;9.42;50.25;101282.66;5022258;27;114943;-60
2020/12/02 04:23:12;;;;;;;20.35;14.98;;;;;;;9.41;49.87;101283.72;5022473;27;116575;-58
2020/12/02 04:25:38;;;;;;;19.90;15.35;;;;;;;9.41;49.87;101278.34;5003648;27;112639;-58
2020/12/02 04:28:04;;;;;;;18.77;14.77;;;;;;;9.40;49.61;101284.78;4986889;27;128517;-60
2020/12/02 04:30:30;;;;;;;18.13;14.45;;;;;;;9.40;49.90;101282.09;5022632;27;127392;-58
2020/12/02 04:32:56;;;;;;;18.92;14.48;;;;;;;9.40;50.45;101288.28;5023055;27;97812;-60
2020/12/02 04:35:22;;;;;;;19.45;15.05;;;;;;;9.36;49.90;101279.06;5022261;27;128578;-58
2020/12/02 04:37:48;;;;;;;18.90;15.45;;;;;;;9.36;50.32;101275.56;5022430;27;128447;-58
2020/12/02 04:40:25;;;;;;;20.88;15.80;;;;;;;9.33;50.20;101284.91;5003059;27;127352;-60
2020/12/02 04:43:11;;;;;;;19.90;14.88;;;;;;;9.31;49.97;101269.00;4987648;27;98104;-60
2020/12/02 04:45:37;;;;;;;20.63;15.05;;;;;;;9.32;50.33;101283.28;4989819;27;98604;-58
2020/12/02 04:48:10;;;;;;;18.95;15.05;;;;;;;9.31;49.72;101270.88;5002339;27;126837;-60
2020/12/02 04:50:36;;;;;;;19.33;15.20;;;;;;;9.29;49.67;101271.13;4989453;27;97925;-60
2020/12/02 04:53:18;;;;;;;18.70;14.77;;;;;;;9.28;49.84;101268.69;5021832;27;117641;-58
2020/12/02 04:55:47;;;;;;;19.57;15.00;;;;;;;9.27;50.49;101267.84;5005019;27;98821;-58
2020/12/02 04:58:33;;;;;;;19.38;14.35;;;;;;;9.26;50.08;101263.50;5022927;27;101273;-58
2020/12/02 05:01:25;;;;;;;19.92;15.15;;;;;;;9.22;49.97;101265.06;5005205;27;98387;-61
2020/12/02 05:04:03;;;;;;;18.80;14.80;;;;;;;9.23;49.87;101263.97;5022853;27;97871;-60
2020/12/02 05:06:38;;;;;;;19.08;15.20;;;;;;;9.22;50.32;101266.94;5023000;27;98312;-58
2020/12/02 05:09:08;;;;;;;19.40;15.75;;;;;;;9.21;49.80;101268.81;5021910;27;99310;-60
2020/12/02 05:11:34;;;;;;;19.83;15.43;;;;;;;9.24;49.87;101265.66;5023341;27;99090;-58
2020/12/02 05:14:02;;;;;;;19.55;15.68;;;;;;;9.22;50.42;101269.63;5007656;27;97847;-58
2020/12/02 05:16:28;;;;;;;21.00;15.93;;;;;;;9.21;50.14;101268.81;5025931;27;100812;-60
2020/12/02 05:19:04;;;;;;;20.45;15.93;;;;;;;9.19;50.13;101270.09;5026081;27;98405;-58
2020/12/02 05:21:32;;;;;;;19.92;15.52;;;;;;;9.20;49.90;101269.06;5026193;27;97826;-60
2020/12/02 05:24:15;;;;;;;21.52;16.23;;;;;;;9.18;49.73;101268.47;5026401;27;97664;-60
2020/12/02 05:26:48;;;;;;;19.95;15.50;;;;;;;9.18;49.99;101263.09;5025062;27;120014;-58
2020/12/02 05:29:43;;;;;;;20.85;15.82;;;;;;;9.16;49.84;101265.22;5006969;27;120166;-58
2020/12/02 05:32:19;;;;;;;20.25;16.02;;;;;;;9.15;50.09;101253.59;4992568;27;98315;-60
2020/12/02 05:34:45;;;;;;;21.00;16.58;;;;;;;9.17;50.45;101261.44;5007298;27;97888;-60
2020/12/02 05:37:30;;;;;;;20.55;16.40;;;;;;;9.16;50.17;101263.34;5025391;27;98312;-58
2020/12/02 05:39:59;;;;;;;19.58;16.05;;;;;;;9.15;50.24;101267.06;4994567;27;108833;-58
2020/12/02 05:42:34;;;;;;;21.13;16.08;;;;;;;9.13;50.41;101263.81;5025324;27;97979;-60
2020/12/02 05:45:40;;;;;;;22.45;16.42;;;;;;;9.12;49.91;101266.72;5025958;27;97720;-58
2020/12/02 05:48:13;;;;;;;19.08;16.13;;;;;;;9.10;49.82;101259.69;5009382;27;98778;-58
2020/12/02 05:50:39;;;;;;;19.67;15.70;;;;;;;9.13;50.24;101261.13;4989719;27;117437;-58
2020/12/02 05:53:30;;;;;;;20.67;15.98;;;;;;;9.12;49.80;101258.63;5002070;27;127452;-58
2020/12/02 05:55:56;;;;;;;20.10;16.13;;;;;;;9.12;50.03;101262.19;5004257;27;97945;-58
2020/12/02 05:58:31;;;;;;;21.40;15.98;;;;;;;9.10;50.27;101259.69;5003695;27;128745;-60
2020/12/02 06:00:57;;;;;;;20.10;15.90;;;;;;;9.11;50.22;101257.81;5004504;27;98518;-58
2020/12/02 06:03:30;;;;;;;20.10;15.68;;;;;;;9.07;50.20;101262.88;5005315;27;97862;-60
2020/12/02 06:06:04;;;;;;;21.40;15.93;;;;;;;9.06;50.43;101258.53;4987135;27;97820;-60
2020/12/02 06:08:40;;;;;;;21.25;16.10;;;;;;;9.05;49.98;101261.47;5004401;27;98428;-60
2020/12/02 06:11:15;;;;;;;20.40;15.98;;;;;;;9.03;50.58;101261.69;5004162;27;99016;-60
2020/12/02 06:14:13;;;;;;;19.33;15.43;;;;;;;9.03;50.27;101258.19;5005044;27;97856;-60
2020/12/02 06:16:47;;;;;;;20.90;16.08;;;;;;;9.03;50.17;101258.19;5003531;27;97813;-60
2020/12/02 06:19:38;;;;;;;21.13;16.02;;;;;;;9.01;50.51;101253.06;5004960;27;100718;-60
2020/12/02 06:22:06;;;;;;;21.65;16.70;;;;;;;9.00;50.28;101259.50;5003431;27;98384;-58
2020/12/02 06:24:42;;;;;;;21.38;16.55;;;;;;;9.02;50.37;101256.56;5003560;27;98352;-60
2020/12/02 06:27:14;;;;;;;23.33;18.50;;;;;;;8.99;50.67;101255.16;5004424;27;97706;-58
2020/12/02 06:29:47;;;;;;;24.03;18.57;;;;;;;8.99;50.36;101251.66;5003968;27;98345;-60
2020/12/02 06:32:16;;;;;;;24.92;19.60;;;;;;;8.98;50.31;101250.03;5003690;27;109983;-58
2020/12/02 06:34:43;;;;;;;23.08;19.20;;;;;;;8.96;50.20;101247.59;5003086;27;98276;-58
2020/12/02 06:37:23;;;;;;;25.48;19.52;;;;;;;8.94;50.45;101244.31;5003909;27;107869;-60
2020/12/02 06:39:56;;;;;;;25.15;20.02;;;;;;;8.94;50.09;101255.06;5004332;27;98373;-58
2020/12/02 06:42:32;;;;;;;25.13;20.50;;;;;;;8.93;50.12;101244.56;4986301;27;99085;-58
2020/12/02 06:45:12;;;;;;;27.45;21.52;;;;;;;8.92;50.43;101251.81;5003701;27;98477;-60
2020/12/02 06:47:50;;;;;;;26.10;22.33;;;;;;;8.92;50.54;101240.22;5004351;27;97973;-58
2020/12/02 06:50:20;;;;;;;26.15;20.75;;;;;;;8.91;50.40;101249.34;5004162;27;97981;-58
2020/12/02 06:52:46;;;;;;;25.90;20.67;;;;;;;8.91;50.11;101242.09;5015224;27;109605;-61
2020/12/02 06:55:17;;;;;;;27.30;22.35;;;;;;;8.93;50.22;101249.94;5023202;27;127634;-58
2020/12/02 06:57:43;;;;;;;29.30;22.60;;;;;;;8.94;50.18;101249.69;5024932;27;98009;-60
2020/12/02 07:00:25;;;;;;;30.27;23.48;;;;;;;8.94;50.35;101244.31;5023240;27;127855;-58
2020/12/02 07:02:54;;;;;;;28.27;22.53;;;;;;;8.92;50.16;101238.38;5006911;27;99018;-58
2020/12/02 07:05:41;;;;;;;27.95;22.67;;;;;;;8.91;50.33;101239.41;5023401;27;98738;-60
2020/12/02 07:08:12;;;;;;;29.45;23.02;;;;;;;8.96;50.27;101236.00;5025276;27;97777;-60
2020/12/02 07:10:39;;;;;;;28.33;22.77;;;;;;;8.99;50.23;101238.22;5023559;27;99172;-60
2020/12/02 07:13:05;;;;;;;30.15;23.42;;;;;;;8.99;50.33;101230.16;5024238;27;99313;-58
2020/12/02 07:15:31;;;;;;;28.52;23.15;;;;;;;8.99;50.87;101236.34;5005544;27;98071;-60
2020/12/02 07:18:28;;;;;;;30.13;23.55;;;;;;;8.99;51.09;101227.47;4972283;27;98133;-60
2020/12/02 07:21:52;;;;;;;29.25;23.95;;;;;;;8.99;50.97;101236.34;5023847;27;98220;-60
2020/12/02 07:24:34;;;;;;;29.67;24.75;;;;;;;9.03;51.16;101234.00;4966237;27;98231;-58
2020/12/02 07:27:00;;;;;;;28.02;23.38;;;;;;;9.09;51.66;101239.25;5023240;27;114763;-60
2020/12/02 07:29:27;;;;;;;31.58;24.50;;;;;;;9.13;51.62;101234.22;5004302;27;116747;-60
2020/12/02 07:32:15;;;;;;;27.23;22.80;;;;;;;9.14;51.78;101238.53;5023766;27;98439;-61
2020/12/02 07:34:41;;;;;;;28.83;22.70;;;;;;;9.21;52.42;101238.41;4987979;27;99300;-60
2020/12/02 07:37:15;;;;;;;27.00;21.98;;;;;;;9.27;52.88;101232.03;5022147;27;124455;-60
2020/12/02 07:39:50;;;;;;;26.20;21.15;;;;;;;9.34;52.69;101224.66;5024331;27;97696;-60
2020/12/02 07:42:39;;;;;;;26.58;21.45;;;;;;;9.43;52.87;101230.47;5023232;27;98600;-59
2020/12/02 07:45:13;;;;;;;26.13;20.92;;;;;;;9.56;52.12;101214.03;5004152;27;112617;-58
2020/12/02 07:48:04;;;;;;;24.95;20.30;;;;;;;9.66;52.46;101218.75;5005957;27;97974;-58
2020/12/02 07:50:43;;;;;;;24.20;19.42;;;;;;;9.82;52.74;101212.56;4996323;27;98586;-60
2020/12/02 07:53:44;;;;;;;25.98;20.02;;;;;;;9.98;52.44;101214.47;4988818;27;98347;-58
2020/12/02 07:56:21;;;;;;;22.30;18.23;;;;;;;10.13;52.26;101210.38;5007848;27;99085;-58
2020/12/02 07:58:47;;;;;;;23.60;18.45;;;;;;;10.33;52.08;101210.69;5004211;27;112728;-59
2020/12/02 08:01:36;;;;;;;22.52;18.95;;;;;;;10.72;52.07;101206.09;4987870;27;99463;-58
2020/12/02 08:04:20;;;;;;;22.85;18.65;;;;;;;11.18;51.02;101209.38;5005344;27;98589;-60
2020/12/02 08:07:04;;;;;;;23.45;18.25;;;;;;;11.33;51.17;101202.50;5023307;27;98933;-59
2020/12/02 08:09:42;;;;;;;22.92;18.35;;;;;;;11.54;51.19;101199.72;5006496;27;97962;-60
2020/12/02 08:12:27;;;;;;;21.50;18.30;;;;;;;11.79;50.30;101198.34;5004464;27;98007;-58
2020/12/02 08:15:10;;;;;;;21.27;18.80;;;;;;;12.02;50.72;101191.78;5007295;27;98694;-60
2020/12/02 08:17:37;;;;;;;21.83;18.35;;;;;;;12.23;50.63;101192.75;5004804;27;98493;-61
2020/12/02 08:20:31;;;;;;;22.25;18.60;;;;;;;12.52;50.64;101185.88;5003839;27;118942;-60
2020/12/02 08:23:01;;;;;;;19.92;17.25;;;;;;;12.69;50.88;101176.75;5023361;27;97952;-59
2020/12/02 08:25:37;;;;;;;23.02;18.80;;;;;;;12.96;50.81;101177.41;5003598;27;113186;-59
2020/12/02 08:28:09;;;;;;;21.38;18.63;;;;;;;13.22;51.03;101174.78;5004222;27;103844;-58
2020/12/02 08:30:35;;;;;;;21.23;18.67;;;;;;;13.45;51.14;101168.88;5004110;27;99543;-59
2020/12/02 08:33:13;;;;;;;21.52;18.75;;;;;;;13.67;50.98;101165.91;5022398;27;113074;-59
2020/12/02 08:36:04;;;;;;;20.88;18.25;;;;;;;14.05;51.05;101168.31;5022360;27;98683;-60
2020/12/02 08:38:35;;;;;;;19.90;17.70;;;;;;;14.19;51.31;101172.91;5022896;27;98929;-60
2020/12/02 08:41:01;;;;;;;19.58;17.50;;;;;;;14.37;51.85;101163.38;5022845;27;98192;-59
2020/12/02 08:43:47;;;;;;;21.33;17.98;;;;;;;14.69;51.77;101165.72;5023689;27;97780;-59
2020/12/02 08:46:31;;;;;;;19.05;17.05;;;;;;;15.01;51.91;101155.53;5023117;27;98295;-61
2020/12/02 08:48:59;;;;;;;19.08;17.10;;;;;;;15.07;52.14;101159.84;4990681;27;98185;-59
2020/12/02 08:51:25;;;;;;;18.05;16.15;;;;;;;15.27;52.26;101161.63;5006771;27;98328;-59
2020/12/02 08:53:53;;;;;;;18.65;16.65;;;;;;;15.38;52.79;101165.91;5026637;27;97733;-61
2020/12/02 08:56:34;;;;;;;18.52;16.45;;;;;;;15.50;52.98;101158.19;5026098;27;101136;-62
2020/12/02 08:59:01;;;;;;;18.48;16.55;;;;;;;15.54;52.89;101161.97;5026629;27;98436;-59
2020/12/02 09:01:28;;;;;;;20.27;18.15;;;;;;;15.69;53.63;101153.72;5006889;27;98942;-60
2020/12/02 09:03:54;;;;;;;19.02;17.10;;;;;;;15.77;54.00;101155.03;5026345;27;98764;-61
2020/12/02 09:06:20;;;;;;;18.58;16.50;;;;;;;15.91;52.93;101158.69;4989130;27;97868;-59
2020/12/02 09:08:47;;;;;;;17.45;15.65;;;;;;;15.98;53.33;101155.63;5025717;27;105508;-60
2020/12/02 09:11:17;;;;;;;18.70;16.40;;;;;;;16.10;53.48;101155.25;5025734;27;97881;-59
2020/12/02 09:13:43;;;;;;;17.85;15.85;;;;;;;16.25;52.34;101155.09;5007822;27;97900;-60
2020/12/02 09:16:09;;;;;;;17.13;15.25;;;;;;;16.30;53.05;101151.50;5025018;27;128104;-59
2020/12/02 09:18:35;;;;;;;16.30;14.50;;;;;;;16.40;52.92;101151.41;5025194;27;128175;-62
2020/12/02 09:21:01;;;;;;;16.63;14.93;;;;;;;16.47;53.01;101146.44;5024735;27;127585;-61
2020/12/02 09:23:27;;;;;;;15.88;14.27;;;;;;;16.47;53.16;101135.53;5026116;27;97747;-59
2020/12/02 09:25:53;;;;;;;17.65;15.75;;;;;;;16.40;53.90;101143.25;5024636;27;127729;-61
2020/12/02 09:28:19;;;;;;;18.63;16.17;;;;;;;16.41;53.68;101140.22;5025051;27;127146;-61
2020/12/02 09:30:45;;;;;;;18.52;16.50;;;;;;;16.33;54.07;101145.50;5024594;27;127142;-61
2020/12/02 09:33:11;;;;;;;19.30;17.23;;;;;;;16.24;54.39;101139.06;5025100;27;111550;-59
2020/12/02 09:35:37;;;;;;;18.50;16.60;;;;;;;16.08;54.68;101130.28;5024266;27;129222;-61
2020/12/02 09:38:05;;;;;;;18.38;16.38;;;;;;;16.01;55.18;101132.50;5025848;27;100094;-61
2020/12/02 09:40:31;;;;;;;18.60;16.60;;;;;;;15.92;55.17;101126.91;4990390;27;98052;-59
2020/12/02 09:43:49;;;;;;;18.38;16.45;;;;;;;15.76;55.33;101128.94;5026204;27;97769;-61
2020/12/02 09:46:18;;;;;;;19.13;16.92;;;;;;;15.54;55.29;101126.66;5025029;27;98398;-60
2020/12/02 09:48:45;;;;;;;19.20;17.10;;;;;;;15.41;55.95;101124.59;5006355;27;111267;-61
2020/12/02 09:51:24;;;;;;;18.42;16.48;;;;;;;15.24;56.79;101124.97;4989506;27;97939;-61
2020/12/02 09:53:51;;;;;;;18.35;16.50;;;;;;;15.14;57.02;101125.06;5026144;27;97736;-59
2020/12/02 09:56:18;;;;;;;17.80;15.93;;;;;;;15.00;56.06;101118.63;5024048;27;99027;-60
2020/12/02 09:58:44;;;;;;;18.55;15.98;;;;;;;14.82;56.97;101115.47;5024549;27;98447;-59
2020/12/02 10:01:40;;;;;;;17.48;15.65;;;;;;;14.64;57.26;101108.78;5024503;27;98512;-59
2020/12/02 10:04:30;;;;;;;17.00;15.20;;;;;;;14.41;57.29;101114.81;4996721;27;98126;-59
2020/12/02 10:07:34;;;;;;;17.17;15.25;;;;;;;14.21;57.15;101112.97;5008373;27;98823;-59
2020/12/02 10:10:15;;;;;;;17.27;15.07;;;;;;;14.05;57.77;101114.13;4991798;27;119760;-60
2020/12/02 10:13:07;;;;;;;16.70;14.68;;;;;;;13.96;57.87;101116.59;4990982;27;97810;-59
2020/12/02 10:15:43;;;;;;;17.27;15.27;;;;;;;13.83;57.32;101112.50;5010481;27;98086;-59
2020/12/02 10:18:45;;;;;;;16.52;14.63;;;;;;;13.67;57.73;101106.31;4990648;27;98317;-62
2020/12/02 10:21:50;;;;;;;16.80;14.52;;;;;;;13.60;58.19;101107.69;5006823;27;98458;-61
2020/12/02 10:24:41;;;;;;;17.25;14.85;;;;;;;13.48;56.82;101097.94;4983785;27;97976;-61
2020/12/02 10:27:32;;;;;;;16.35;14.55;;;;;;;13.46;57.20;101094.69;5009974;27;97935;-59
2020/12/02 10:30:17;;;;;;;15.20;13.45;;;;;;;13.41;57.40;101088.47;4990313;27;98781;-59
2020/12/02 10:33:31;;;;;;;17.23;14.02;;;;;;;13.36;57.20;101085.72;5006397;27;98234;-59
2020/12/02 10:35:58;;;;;;;15.27;13.68;;;;;;;13.36;57.98;101073.03;5005713;27;97914;-61
2020/12/02 10:38:32;;;;;;;15.38;13.18;;;;;;;13.36;57.97;101078.44;5025020;27;98408;-59
2020/12/02 10:41:23;;;;;;;16.13;13.60;;;;;;;13.34;58.08;101074.38;5024924;27;98162;-59
2020/12/02 10:44:17;;;;;;;16.52;13.88;;;;;;;13.36;57.77;101067.63;4995040;27;99125;-59
2020/12/02 10:47:09;;;;;;;14.52;13.02;;;;;;;13.29;58.21;101058.94;5024420;27;98133;-59
2020/12/02 10:49:35;;;;;;;16.63;13.95;;;;;;;13.27;56.74;101061.09;5007577;27;97754;-62
2020/12/02 10:52:02;;;;;;;15.85;13.68;;;;;;;13.29;57.49;101058.94;5022856;27;128589;-59
2020/12/02 10:54:37;;;;;;;16.55;13.52;;;;;;;13.25;56.85;101047.03;5005546;27;99015;-59
2020/12/02 10:57:23;;;;;;;15.15;13.20;;;;;;;13.21;57.61;101044.03;5024197;27;98481;-59
2020/12/02 10:59:59;;;;;;;16.13;13.25;;;;;;;13.19;57.19;101034.53;5006960;27;107456;-61
2020/12/02 11:02:30;;;;;;;16.15;13.40;;;;;;;13.18;56.96;101033.72;5024682;27;98336;-61
2020/12/02 11:04:57;;;;;;;15.20;13.45;;;;;;;13.14;57.58;101029.94;5005346;27;99041;-61
2020/12/02 11:07:35;;;;;;;15.80;13.18;;;;;;;13.15;57.53;101028.84;5024084;27;98268;-59
2020/12/02 11:10:12;;;;;;;15.75;13.50;;;;;;;13.12;58.06;101026.69;5024282;27;97917;-62
2020/12/02 11:13:13;;;;;;;15.52;13.10;;;;;;;13.13;58.13;101025.63;4973983;27;98615;-61
2020/12/02 11:16:07;;;;;;;15.93;12.90;;;;;;;13.12;58.31;101026.69;5005359;27;99038;-59
2020/12/02 11:19:24;;;;;;;15.32;12.27;;;;;;;13.06;58.72;101014.25;5006504;27;98124;-59
2020/12/02 11:22:05;;;;;;;15.50;13.15;;;;;;;13.03;58.68;101002.06;5005307;27;98149;-61
2020/12/02 11:24:42;;;;;;;14.95;12.52;;;;;;;13.01;58.95;101001.53;5004843;27;99110;-59
2020/12/02 11:27:08;;;;;;;14.55;12.82;;;;;;;12.97;58.84;101000.44;4989302;27;99023;-59
2020/12/02 11:29:34;;;;;;;15.13;12.57;;;;;;;12.95;58.91;101004.50;5024236;27;98248;-61
2020/12/02 11:33:02;;;;;;;14.25;12.15;;;;;;;12.94;58.98;100998.28;5023828;27;117790;-61
2020/12/02 11:35:52;;;;;;;15.57;12.57;;;;;;;12.91;58.82;100987.19;4941690;28;116970;-61
2020/12/02 11:38:26;;;;;;;14.43;12.07;;;;;;;12.89;59.13;100990.16;5005245;27;98550;-59
2020/12/02 11:41:23;;;;;;;14.23;11.77;;;;;;;12.85;58.90;100991.78;4989159;27;102499;-60
2020/12/02 11:43:55;;;;;;;14.27;12.60;;;;;;;12.83;58.32;100972.28;5005777;27;98144;-60
2020/12/02 11:46:21;;;;;;;14.95;12.40;;;;;;;12.81;57.97;100976.34;4988691;27;98585;-59